Midfield, AL

10:09 AM CDT on September 03, 2015 (GMT -0500)
Autumn Brook Lane | | Change Station
CLOSE
Current Station
Personal Weather Station
Location: Hueytown, AL
Elevation: 600 ft
Nearby Weather Stations

Elev 600 ft 33.46 °N, 86.99 °W | Updated 32 seconds ago

Partly Cloudy
Partly Cloudy
87.8 °F
Feels Like 97 °F
N
2.7
Wind Variable Wind from SSW
Gusts 2.7 mph

Today
High -- | Low -- °F
--% Chance of Precip.
Yesterday
High -- | Low -- °F
Precip. -- in
6:22 AM 7:10 PM
Waning Gibbous, 69% visible
Pressure 30.03 in
Visibility 10.0 miles
Clouds Few 4400 ft
Mostly Cloudy 11000 ft
Heat Index 97 °F
Dew Point 74 °F
Humidity 64%
Rainfall in
Snow Depth Not available.
UV 3 out of 12
Pollen 8.80 out of 12
Air Quality Not available.
Flu Activity Not available.
METAR KBHM 031453Z 00000KT 10SM FEW044 BKN110 28/22 A3005 RMK AO2 SLP167 T02830222 50003
Pressure 30.03 in
Visibility 10.0 miles
Clouds Few 4400 ft
Mostly Cloudy 11000 ft
Heat Index 97 °F
Dew Point 74 °F
Humidity 64%
Rainfall in
Snow Depth Not available.
UV 3 out of 12
Pollen 8.80 out of 12
Air Quality Not available.
Flu Activity Not available.
METAR KBHM 031453Z 00000KT 10SM FEW044 BKN110 28/22 A3005 RMK AO2 SLP167 T02830222 50003

10-Day Weather Forecast

×

Almanac

Astronomy

Sep. 03, 2015 Rise Set
Actual Time
Civil Twilight
Nautical Twilight
Astronomical Twilight
Moon
Length of Visible Light
Length of Day
Tomorrow will be .
, % of the Moon is Illuminated

Today's Extremes

State Highs State Lows

Community

WunderPhotos

Upload Photos

1,851,960 photos uploaded!

WunderBlogs® & News

Nearby

Air Quality

  Air Quality AQ Index Pollutant
Not available.

Snow Depth

Station Depth Elevation

Earthquake Activity

City Distance Mag. Time & Date
Minimum magnitude displayed is 2.5.

Coastal Water Temperatures

Place Temperature

Stations

Nearby Weather Stations

Station Location Temp. Windchill Dew Point Humidity Wind Precip. Elev Updated Type